createdAt,value
2023-01-23T00:00:30.407Z,0.98
2023-01-23T00:01:30.399Z,0.98
2023-01-23T00:02:30.364Z,0.98
2023-01-23T00:03:30.415Z,0.99
2023-01-23T00:04:30.314Z,0.99
2023-01-23T00:05:30.349Z,1.01
2023-01-23T00:06:30.275Z,1.01
2023-01-23T00:07:30.274Z,1.02
2023-01-23T00:08:30.257Z,1.04
2023-01-23T00:09:30.258Z,1.04
2023-01-23T00:10:30.268Z,1.05
2023-01-23T00:11:30.407Z,1.05
2023-01-23T00:12:30.200Z,1.04
2023-01-23T00:13:30.201Z,1.04
2023-01-23T00:14:30.182Z,1.04
2023-01-23T00:15:30.245Z,1.04
2023-01-23T00:16:30.159Z,1.01
2023-01-23T00:17:30.160Z,1.01
2023-01-23T00:18:30.140Z,0.99
2023-01-23T00:19:30.138Z,0.99
2023-01-23T00:20:30.100Z,1.01
2023-01-23T00:21:30.802Z,1.01
2023-01-23T00:22:30.078Z,1.02
2023-01-23T00:23:30.124Z,1.02
2023-01-23T00:24:30.135Z,0.99
2023-01-23T00:25:30.077Z,1.01
2023-01-23T00:26:30.044Z,0.99
2023-01-23T00:27:30.032Z,0.99
2023-01-23T00:28:29.993Z,0.98
2023-01-23T00:29:30.007Z,0.96
2023-01-23T00:30:29.971Z,0.96
2023-01-23T00:31:30.143Z,0.98
2023-01-23T00:32:29.971Z,0.95
2023-01-23T00:33:29.979Z,0.96
2023-01-23T00:34:29.949Z,0.96
2023-01-23T00:35:29.959Z,0.94
2023-01-23T00:36:29.908Z,0.95
2023-01-23T00:37:29.961Z,0.96
2023-01-23T00:38:29.910Z,0.96
2023-01-23T00:39:29.891Z,0.96
2023-01-23T00:40:29.859Z,0.98
2023-01-23T00:41:29.897Z,0.96
2023-01-23T00:42:29.858Z,0.95
2023-01-23T00:43:29.893Z,0.98
2023-01-23T00:44:29.862Z,0.95
2023-01-23T00:45:29.874Z,0.96
2023-01-23T00:46:29.838Z,0.96
2023-01-23T00:47:29.843Z,0.96
2023-01-23T00:48:29.752Z,0.95
2023-01-23T00:49:29.838Z,0.95
2023-01-23T00:50:29.782Z,0.92
2023-01-23T00:51:29.779Z,0.94
2023-01-23T00:52:29.720Z,0.95
2023-01-23T00:53:29.732Z,0.94
2023-01-23T00:54:29.794Z,0.94
2023-01-23T00:55:29.734Z,0.91
2023-01-23T00:56:29.694Z,0.91
2023-01-23T00:57:29.710Z,0.91
2023-01-23T00:58:29.702Z,0.91
2023-01-23T00:59:29.643Z,0.92
2023-01-23T01:00:29.654Z,0.91
2023-01-23T01:01:29.684Z,0.92
2023-01-23T01:02:29.614Z,0.91
2023-01-23T01:03:29.636Z,0.88
2023-01-23T01:04:30.353Z,0.91
2023-01-23T01:05:29.550Z,0.94
2023-01-23T01:06:29.586Z,0.92
2023-01-23T01:07:29.553Z,0.92
2023-01-23T01:08:29.539Z,0.92
2023-01-23T01:09:29.533Z,0.94
2023-01-23T01:10:29.737Z,0.94
2023-01-23T01:11:29.510Z,0.95
2023-01-23T01:12:29.468Z,0.95
2023-01-23T01:13:29.485Z,0.96
2023-01-23T01:14:29.422Z,0.95
2023-01-23T01:15:29.447Z,0.96
2023-01-23T01:16:29.488Z,0.96
2023-01-23T01:17:30.163Z,0.98
2023-01-23T01:18:29.421Z,0.98
2023-01-23T01:19:29.422Z,0.98
2023-01-23T01:20:29.368Z,0.98
2023-01-23T01:21:29.349Z,0.95
2023-01-23T01:22:29.351Z,0.94
2023-01-23T01:23:29.378Z,0.94
2023-01-23T01:24:29.448Z,0.91
2023-01-23T01:25:29.317Z,0.87
2023-01-23T01:26:29.287Z,0.88
2023-01-23T01:27:29.306Z,0.87
2023-01-23T01:28:29.314Z,0.87
2023-01-23T01:29:29.247Z,0.83
2023-01-23T01:30:29.213Z,0.83
2023-01-23T01:31:29.338Z,0.80
2023-01-23T01:32:29.187Z,0.78
2023-01-23T01:33:29.204Z,0.81
2023-01-23T01:34:29.188Z,0.80
2023-01-23T01:35:29.162Z,0.78
2023-01-23T01:36:29.143Z,0.77
2023-01-23T01:37:29.151Z,0.80
2023-01-23T01:38:29.123Z,0.76
2023-01-23T01:39:29.171Z,0.76
2023-01-23T01:40:29.096Z,0.73
2023-01-23T01:41:29.094Z,0.70
2023-01-23T01:42:29.069Z,0.70
2023-01-23T01:43:29.066Z,0.69
2023-01-23T01:44:29.062Z,0.69
2023-01-23T01:45:29.076Z,0.69
2023-01-23T01:46:29.091Z,0.69
2023-01-23T01:47:29.044Z,0.66
2023-01-23T01:48:29.008Z,0.68
2023-01-23T01:49:28.981Z,0.66
2023-01-23T01:50:28.979Z,0.66
2023-01-23T01:51:28.971Z,0.66
2023-01-23T01:52:28.933Z,0.65
2023-01-23T01:53:28.935Z,0.63
2023-01-23T01:54:28.908Z,0.62
2023-01-23T01:55:28.929Z,0.62
2023-01-23T01:56:28.929Z,0.60
2023-01-23T01:57:28.909Z,0.60
2023-01-23T01:58:28.885Z,0.58
2023-01-23T01:59:28.857Z,0.58
2023-01-23T02:00:28.861Z,0.56
2023-01-23T02:01:28.847Z,0.56
2023-01-23T02:02:28.835Z,0.58
2023-01-23T02:03:28.807Z,0.56
2023-01-23T02:04:28.774Z,0.55
2023-01-23T02:05:28.806Z,0.56
2023-01-23T02:06:28.761Z,0.55
2023-01-23T02:07:28.771Z,0.55
2023-01-23T02:08:29.022Z,0.56
2023-01-23T02:09:28.751Z,0.56
2023-01-23T02:10:28.718Z,0.52
2023-01-23T02:11:28.724Z,0.52
2023-01-23T02:12:28.679Z,0.50
2023-01-23T02:13:28.686Z,0.50
2023-01-23T02:14:28.679Z,0.50
2023-01-23T02:15:28.655Z,0.49
2023-01-23T02:16:28.679Z,0.47
2023-01-23T02:17:28.632Z,0.47
2023-01-23T02:18:28.633Z,0.46
2023-01-23T02:19:28.621Z,0.44
2023-01-23T02:20:28.624Z,0.43
2023-01-23T02:21:28.587Z,0.43
2023-01-23T02:22:28.553Z,0.44
2023-01-23T02:23:28.553Z,0.41
2023-01-23T02:24:28.532Z,0.43
2023-01-23T02:25:28.564Z,0.41
2023-01-23T02:26:28.502Z,0.40
2023-01-23T02:27:28.509Z,0.40
2023-01-23T02:28:28.485Z,0.39
2023-01-23T02:29:28.488Z,0.37
2023-01-23T02:30:28.463Z,0.36
2023-01-23T02:31:28.623Z,0.37
2023-01-23T02:32:28.428Z,0.34
2023-01-23T02:33:28.433Z,0.36
2023-01-23T02:34:28.386Z,0.31
2023-01-23T02:35:28.409Z,0.29
2023-01-23T02:36:28.408Z,0.28
2023-01-23T02:37:28.409Z,0.28
2023-01-23T02:38:28.348Z,0.25
2023-01-23T02:39:28.364Z,0.23
2023-01-23T02:40:28.322Z,0.22
2023-01-23T02:41:28.333Z,0.21
2023-01-23T02:42:28.329Z,0.19
2023-01-23T02:43:28.435Z,0.18
2023-01-23T02:44:28.330Z,0.19
2023-01-23T02:46:19.113Z,0.18
2023-01-23T02:47:19.112Z,0.16
2023-01-23T02:48:19.097Z,0.12
2023-01-23T02:49:19.082Z,0.12
2023-01-23T02:50:19.359Z,0.08
2023-01-23T02:51:19.093Z,0.08
2023-01-23T02:52:19.023Z,0.07
2023-01-23T02:53:19.025Z,0.07
2023-01-23T02:54:19.030Z,0.07
2023-01-23T02:55:19.012Z,0.07
2023-01-23T02:56:18.971Z,0.05
2023-01-23T02:57:18.992Z,0.05
2023-01-23T02:58:18.950Z,0.05
2023-01-23T02:59:18.959Z,0.04
2023-01-23T03:00:19.210Z,0.07
2023-01-23T03:01:18.964Z,0.04
2023-01-23T03:02:18.953Z,0.04
2023-01-23T03:03:18.917Z,0.03
2023-01-23T03:04:18.900Z,0.01
2023-01-23T03:05:18.888Z,0.01
2023-01-23T03:06:18.857Z,-0.02
2023-01-23T03:07:18.867Z,0.00
2023-01-23T03:08:18.830Z,-0.02
2023-01-23T03:09:18.848Z,-0.02
2023-01-23T03:10:19.163Z,-0.03
2023-01-23T03:11:18.843Z,-0.06
2023-01-23T03:12:18.772Z,-0.06
2023-01-23T03:13:18.792Z,-0.03
2023-01-23T03:14:18.749Z,-0.10
2023-01-23T03:15:18.775Z,-0.07
2023-01-23T03:16:18.741Z,-0.07
2023-01-23T03:17:18.758Z,-0.07
2023-01-23T03:18:18.718Z,-0.07
2023-01-23T03:19:18.728Z,-0.06
2023-01-23T03:20:18.973Z,-0.06
2023-01-23T03:21:18.686Z,-0.10
2023-01-23T03:22:18.703Z,-0.11
2023-01-23T03:23:18.665Z,-0.08
2023-01-23T03:24:18.624Z,-0.11
2023-01-23T03:25:18.726Z,-0.11
2023-01-23T03:26:18.645Z,-0.11
2023-01-23T03:27:18.602Z,-0.11
2023-01-23T03:28:18.592Z,-0.11
2023-01-23T03:29:18.581Z,-0.11
2023-01-23T03:30:19.009Z,-0.13
2023-01-23T03:31:18.610Z,-0.13
2023-01-23T03:32:18.559Z,-0.13
2023-01-23T03:33:18.520Z,-0.13
2023-01-23T03:34:18.530Z,-0.13
2023-01-23T03:35:18.487Z,-0.13
2023-01-23T03:36:18.506Z,-0.13
2023-01-23T03:37:18.486Z,-0.11
2023-01-23T03:38:18.473Z,-0.10
2023-01-23T03:39:18.434Z,-0.13
2023-01-23T03:40:18.799Z,-0.10
2023-01-23T03:41:18.413Z,-0.10
2023-01-23T03:42:18.436Z,-0.11
2023-01-23T03:43:18.414Z,-0.14
2023-01-23T03:44:18.392Z,-0.15
2023-01-23T03:45:18.362Z,-0.17
2023-01-23T03:46:18.402Z,-0.17
2023-01-23T03:47:18.368Z,-0.21
2023-01-23T03:48:18.358Z,-0.20
2023-01-23T03:49:18.328Z,-0.21
2023-01-23T03:50:18.636Z,-0.23
2023-01-23T03:51:18.393Z,-0.25
2023-01-23T03:52:18.309Z,-0.26
2023-01-23T03:53:18.267Z,-0.26
2023-01-23T03:54:18.265Z,-0.31
2023-01-23T03:55:18.235Z,-0.31
2023-01-23T03:56:18.245Z,-0.34
2023-01-23T03:57:18.242Z,-0.34
2023-01-23T03:58:18.223Z,-0.35
2023-01-23T03:59:18.195Z,-0.35
2023-01-23T04:00:18.624Z,-0.36
2023-01-23T04:01:18.196Z,-0.41
2023-01-23T04:02:18.213Z,-0.44
2023-01-23T04:03:18.140Z,-0.46
2023-01-23T04:04:18.149Z,-0.49
2023-01-23T04:05:18.120Z,-0.50
2023-01-23T04:06:18.138Z,-0.54
2023-01-23T04:07:18.118Z,-0.57
2023-01-23T04:08:18.127Z,-0.59
2023-01-23T04:09:18.067Z,-0.62
2023-01-23T04:10:18.552Z,-0.64
2023-01-23T04:11:18.060Z,-0.65
2023-01-23T04:12:18.074Z,-0.65
2023-01-23T04:13:18.058Z,-0.67
2023-01-23T04:14:18.034Z,-0.67
2023-01-23T04:15:18.012Z,-0.67
2023-01-23T04:16:18.063Z,-0.68
2023-01-23T04:17:17.971Z,-0.70
2023-01-23T04:18:17.972Z,-0.70
2023-01-23T04:19:17.969Z,-0.68
2023-01-23T04:20:18.229Z,-0.71
2023-01-23T04:21:17.940Z,-0.71
2023-01-23T04:22:17.931Z,-0.70
2023-01-23T04:23:17.898Z,-0.72
2023-01-23T04:24:17.953Z,-0.75
2023-01-23T04:25:17.869Z,-0.80
2023-01-23T04:26:17.919Z,-0.82
2023-01-23T04:27:17.845Z,-0.80
2023-01-23T04:28:17.856Z,-0.80
2023-01-23T04:29:17.828Z,-0.82
2023-01-23T04:30:18.141Z,-0.80
2023-01-23T04:31:17.955Z,-0.80
2023-01-23T04:32:17.812Z,-0.82
2023-01-23T04:33:17.801Z,-0.83
2023-01-23T04:34:17.785Z,-0.83
2023-01-23T04:35:17.750Z,-0.85
2023-01-23T04:36:17.759Z,-0.82
2023-01-23T04:37:17.728Z,-0.82
2023-01-23T04:38:17.759Z,-0.83
2023-01-23T04:39:17.731Z,-0.80
2023-01-23T04:40:17.869Z,-0.78
2023-01-23T04:41:17.723Z,-0.77
2023-01-23T04:42:17.686Z,-0.77
2023-01-23T04:43:17.656Z,-0.75
2023-01-23T04:44:17.685Z,-0.77
2023-01-23T04:45:17.634Z,-0.75
2023-01-23T04:46:17.697Z,-0.75
2023-01-23T04:47:17.626Z,-0.75
2023-01-23T04:48:17.609Z,-0.74
2023-01-23T04:49:17.580Z,-0.71
2023-01-23T04:50:17.788Z,-0.72
2023-01-23T04:51:17.598Z,-0.70
2023-01-23T04:52:17.592Z,-0.67
2023-01-23T04:53:17.536Z,-0.65
2023-01-23T04:54:17.540Z,-0.65
2023-01-23T04:55:17.499Z,-0.64
2023-01-23T04:56:17.533Z,-0.65
2023-01-23T04:57:17.512Z,-0.64
2023-01-23T04:58:17.497Z,-0.64
2023-01-23T04:59:17.460Z,-0.64
2023-01-23T05:00:17.604Z,-0.67
2023-01-23T05:01:17.437Z,-0.67
2023-01-23T05:02:17.553Z,-0.70
2023-01-23T05:03:17.430Z,-0.70
2023-01-23T05:04:17.444Z,-0.72
2023-01-23T05:05:17.392Z,-0.74
2023-01-23T05:06:17.415Z,-0.75
2023-01-23T05:07:17.384Z,-0.74
2023-01-23T05:08:17.377Z,-0.75
2023-01-23T05:09:17.331Z,-0.77
2023-01-23T05:10:17.410Z,-0.75
2023-01-23T05:11:17.340Z,-0.75
2023-01-23T05:12:17.336Z,-0.72
2023-01-23T05:13:17.306Z,-0.74
2023-01-23T05:14:17.300Z,-0.72
2023-01-23T05:15:17.297Z,-0.70
2023-01-23T05:16:17.286Z,-0.68
2023-01-23T05:17:17.235Z,-0.65
2023-01-23T05:18:17.254Z,-0.64
2023-01-23T05:19:17.215Z,-0.64
2023-01-23T05:20:17.501Z,-0.61
2023-01-23T05:21:17.234Z,-0.59
2023-01-23T05:22:17.202Z,-0.59
2023-01-23T05:23:17.161Z,-0.61
2023-01-23T05:24:17.196Z,-0.61
2023-01-23T05:25:17.136Z,-0.62
2023-01-23T05:26:17.151Z,-0.62
2023-01-23T05:27:17.145Z,-0.62
2023-01-23T05:28:17.138Z,-0.62
2023-01-23T05:29:17.177Z,-0.62
2023-01-23T05:30:17.201Z,-0.62
2023-01-23T05:31:19.060Z,-0.61
2023-01-23T05:32:17.086Z,-0.62
2023-01-23T05:33:17.045Z,-0.59
2023-01-23T05:34:17.142Z,-0.57
2023-01-23T05:35:17.050Z,-0.56
2023-01-23T05:36:18.561Z,-0.54
2023-01-23T05:37:17.040Z,-0.53
2023-01-23T05:38:17.011Z,-0.53
2023-01-23T05:39:17.016Z,-0.56
2023-01-23T05:40:17.014Z,-0.56
2023-01-23T05:41:16.945Z,-0.57
2023-01-23T05:42:16.950Z,-0.57
2023-01-23T05:43:16.937Z,-0.57
2023-01-23T05:44:16.946Z,-0.59
2023-01-23T05:45:16.923Z,-0.57
2023-01-23T05:46:16.951Z,-0.57
2023-01-23T05:47:16.879Z,-0.54
2023-01-23T05:48:16.882Z,-0.56
2023-01-23T05:49:16.872Z,-0.57
2023-01-23T05:50:16.879Z,-0.54
2023-01-23T05:51:16.927Z,-0.53
2023-01-23T05:52:16.842Z,-0.50
2023-01-23T05:53:16.804Z,-0.52
2023-01-23T05:54:16.843Z,-0.52
2023-01-23T05:55:16.808Z,-0.52
2023-01-23T05:56:16.780Z,-0.52
2023-01-23T05:57:16.778Z,-0.52
2023-01-23T05:58:16.764Z,-0.52
2023-01-23T05:59:16.727Z,-0.53
2023-01-23T06:00:16.736Z,-0.53
2023-01-23T06:01:16.720Z,-0.54
2023-01-23T06:02:16.767Z,-0.54
2023-01-23T06:03:16.739Z,-0.56
2023-01-23T06:04:16.688Z,-0.57
2023-01-23T06:05:16.655Z,-0.56
2023-01-23T06:06:16.761Z,-0.53
2023-01-23T06:07:16.624Z,-0.53
2023-01-23T06:08:16.679Z,-0.54
2023-01-23T06:09:16.665Z,-0.52
2023-01-23T06:10:16.626Z,-0.49
2023-01-23T06:11:16.602Z,-0.50
2023-01-23T06:12:16.660Z,-0.47
2023-01-23T06:13:16.610Z,-0.43
2023-01-23T06:14:16.578Z,-0.41
2023-01-23T06:15:16.560Z,-0.39
2023-01-23T06:16:16.739Z,-0.39
2023-01-23T06:17:16.529Z,-0.38
2023-01-23T06:18:16.507Z,-0.38
2023-01-23T06:19:16.493Z,-0.41
2023-01-23T06:20:16.507Z,-0.41
2023-01-23T06:21:16.498Z,-0.43
2023-01-23T06:22:16.489Z,-0.46
2023-01-23T06:23:16.447Z,-0.47
2023-01-23T06:24:16.444Z,-0.50
2023-01-23T06:25:16.445Z,-0.50
2023-01-23T06:26:16.456Z,-0.49
2023-01-23T06:27:16.403Z,-0.47
2023-01-23T06:28:16.445Z,-0.47
2023-01-23T06:29:16.365Z,-0.47
2023-01-23T06:30:16.405Z,-0.49
2023-01-23T06:31:16.458Z,-0.50
2023-01-23T06:32:16.350Z,-0.52
2023-01-23T06:33:16.310Z,-0.52
2023-01-23T06:34:16.259Z,-0.53
2023-01-23T06:35:16.285Z,-0.56
2023-01-23T06:36:16.319Z,-0.56
2023-01-23T06:37:16.232Z,-0.56
2023-01-23T06:38:16.216Z,-0.56
2023-01-23T06:39:16.239Z,-0.56
2023-01-23T06:40:16.292Z,-0.54
2023-01-23T06:41:17.802Z,-0.54
2023-01-23T06:42:16.204Z,-0.56
2023-01-23T06:43:16.151Z,-0.57
2023-01-23T06:44:16.152Z,-0.56
2023-01-23T06:45:16.104Z,-0.59
2023-01-23T06:46:16.174Z,-0.59
2023-01-23T06:47:16.091Z,-0.61
2023-01-23T06:48:16.141Z,-0.61
2023-01-23T06:49:16.064Z,-0.57
2023-01-23T06:50:16.067Z,-0.59
2023-01-23T06:51:16.065Z,-0.57
2023-01-23T06:52:16.043Z,-0.57
2023-01-23T06:53:16.016Z,-0.56
2023-01-23T06:54:16.038Z,-0.54
2023-01-23T06:55:15.989Z,-0.56
2023-01-23T06:56:16.027Z,-0.57
2023-01-23T06:57:15.964Z,-0.56
2023-01-23T06:58:15.973Z,-0.59
2023-01-23T06:59:15.938Z,-0.61
2023-01-23T07:00:15.959Z,-0.56
2023-01-23T07:01:16.131Z,-0.54
2023-01-23T07:02:15.929Z,-0.52
2023-01-23T07:03:15.969Z,-0.50
2023-01-23T07:04:15.920Z,-0.44
2023-01-23T07:05:15.904Z,-0.44
2023-01-23T07:06:15.871Z,-0.43
2023-01-23T07:07:15.860Z,-0.39
2023-01-23T07:08:15.857Z,-0.39
2023-01-23T07:09:15.822Z,-0.35
2023-01-23T07:10:15.825Z,-0.36
2023-01-23T07:11:15.787Z,-0.39
2023-01-23T07:12:15.819Z,-0.38
2023-01-23T07:13:15.778Z,-0.41
2023-01-23T07:14:15.785Z,-0.41
2023-01-23T07:15:15.733Z,-0.39
2023-01-23T07:16:15.788Z,-0.38
2023-01-23T07:17:15.732Z,-0.36
2023-01-23T07:18:15.754Z,-0.34
2023-01-23T07:19:15.693Z,-0.35
2023-01-23T07:20:15.701Z,-0.31
2023-01-23T07:21:15.679Z,-0.31
2023-01-23T07:22:15.668Z,-0.26
2023-01-23T07:23:15.664Z,-0.25
2023-01-23T07:24:15.685Z,-0.25
2023-01-23T07:25:15.616Z,-0.21
2023-01-23T07:26:15.633Z,-0.20
2023-01-23T07:27:15.594Z,-0.17
2023-01-23T07:28:15.609Z,-0.17
2023-01-23T07:29:15.564Z,-0.15
2023-01-23T07:30:15.605Z,-0.13
2023-01-23T07:31:15.685Z,-0.15
2023-01-23T07:32:15.547Z,-0.14
2023-01-23T07:33:15.520Z,-0.11
2023-01-23T07:34:15.553Z,-0.08
2023-01-23T07:35:15.491Z,-0.11
2023-01-23T07:36:15.539Z,-0.08
2023-01-23T07:37:15.472Z,-0.08
2023-01-23T07:38:15.528Z,-0.06
2023-01-23T07:39:15.448Z,-0.06
2023-01-23T07:40:15.466Z,-0.07
2023-01-23T07:41:15.418Z,-0.08
2023-01-23T07:42:15.476Z,-0.07
2023-01-23T07:43:15.394Z,-0.08
2023-01-23T07:44:15.402Z,-0.06
2023-01-23T07:45:15.397Z,-0.06
2023-01-23T07:46:15.393Z,-0.03
2023-01-23T07:47:15.384Z,0.03
2023-01-23T07:48:15.335Z,0.01
2023-01-23T07:49:15.335Z,0.01
2023-01-23T07:50:15.343Z,0.04
2023-01-23T07:51:15.363Z,0.03
2023-01-23T07:52:15.309Z,0.04
2023-01-23T07:53:15.333Z,0.03
2023-01-23T07:54:15.280Z,0.04
2023-01-23T07:55:15.263Z,0.04
2023-01-23T07:56:15.282Z,0.05
2023-01-23T07:57:15.247Z,0.07
2023-01-23T07:58:15.207Z,0.05
2023-01-23T07:59:15.235Z,0.05
2023-01-23T08:00:15.183Z,0.03
2023-01-23T08:01:15.235Z,0.04
2023-01-23T08:02:15.175Z,0.04
2023-01-23T08:03:15.165Z,0.04
2023-01-23T08:04:15.273Z,0.04
2023-01-23T08:05:15.134Z,0.07
2023-01-23T08:06:15.101Z,0.07
2023-01-23T08:07:15.161Z,0.08
2023-01-23T08:08:15.080Z,0.08
2023-01-23T08:09:15.089Z,0.07
2023-01-23T08:10:15.137Z,0.08
2023-01-23T08:11:15.078Z,0.05
2023-01-23T08:12:15.039Z,0.07
2023-01-23T08:13:15.035Z,0.08
2023-01-23T08:14:15.010Z,0.08
2023-01-23T08:15:15.062Z,0.08
2023-01-23T08:16:15.056Z,0.08
2023-01-23T08:17:15.003Z,0.10
2023-01-23T08:18:14.973Z,0.10
2023-01-23T08:19:14.972Z,0.12
2023-01-23T08:20:14.923Z,0.15
2023-01-23T08:21:15.001Z,0.18
2023-01-23T08:22:14.901Z,0.19
2023-01-23T08:23:14.909Z,0.23
2023-01-23T08:24:14.879Z,0.25
2023-01-23T08:25:14.888Z,0.25
2023-01-23T08:26:14.865Z,0.28
2023-01-23T08:27:14.904Z,0.26
2023-01-23T08:28:14.846Z,0.31
2023-01-23T08:29:14.835Z,0.34
2023-01-23T08:30:14.808Z,0.34
2023-01-23T08:31:14.917Z,0.36
2023-01-23T08:32:14.807Z,0.40
2023-01-23T08:33:14.814Z,0.40
2023-01-23T08:34:14.760Z,0.40
2023-01-23T08:35:14.803Z,0.40
2023-01-23T08:36:14.737Z,0.40
2023-01-23T08:37:14.741Z,0.41
2023-01-23T08:38:14.759Z,0.43
2023-01-23T08:39:14.720Z,0.46
2023-01-23T08:40:14.680Z,0.47
2023-01-23T08:41:14.708Z,0.49
2023-01-23T08:42:14.683Z,0.50
2023-01-23T08:43:14.658Z,0.56
2023-01-23T08:44:14.662Z,0.55
2023-01-23T08:45:14.637Z,0.52
2023-01-23T08:46:21.697Z,0.50
2023-01-23T08:47:16.454Z,0.52
2023-01-23T08:48:16.287Z,0.55
2023-01-23T08:49:14.612Z,0.56
2023-01-23T08:50:14.554Z,0.56
2023-01-23T08:51:14.689Z,0.49
2023-01-23T08:52:14.531Z,0.49
2023-01-23T08:53:14.563Z,0.55
2023-01-23T08:54:14.522Z,0.56
2023-01-23T08:55:14.528Z,0.55
2023-01-23T08:56:16.682Z,0.56
2023-01-23T08:57:14.539Z,0.56
2023-01-23T08:58:14.455Z,0.56
2023-01-23T08:59:14.472Z,0.59
2023-01-23T09:00:14.435Z,0.60
2023-01-23T09:01:14.616Z,0.58
2023-01-23T09:02:14.449Z,0.59
2023-01-23T09:03:14.424Z,0.56
2023-01-23T09:04:14.403Z,0.55
2023-01-23T09:05:14.435Z,0.55
2023-01-23T09:06:14.361Z,0.55
2023-01-23T09:07:14.392Z,0.52
2023-01-23T09:08:14.341Z,0.50
2023-01-23T09:09:14.348Z,0.52
2023-01-23T09:10:14.309Z,0.52
2023-01-23T09:11:14.322Z,0.49
2023-01-23T09:12:14.330Z,0.47
2023-01-23T09:13:14.290Z,0.47
2023-01-23T09:14:14.283Z,0.46
2023-01-23T09:15:14.308Z,0.44
2023-01-23T09:16:14.308Z,0.44
2023-01-23T09:17:14.266Z,0.44
2023-01-23T09:18:14.224Z,0.46
2023-01-23T09:19:14.235Z,0.49
2023-01-23T09:20:14.184Z,0.50
2023-01-23T09:21:14.183Z,0.49
2023-01-23T09:22:14.204Z,0.52
2023-01-23T09:23:14.154Z,0.47
2023-01-23T09:24:14.196Z,0.46
2023-01-23T09:25:14.143Z,0.46
2023-01-23T09:26:14.110Z,0.46
2023-01-23T09:27:14.101Z,0.46
2023-01-23T09:28:14.115Z,0.47
2023-01-23T09:29:14.089Z,0.47
2023-01-23T09:30:14.086Z,0.49
2023-01-23T09:31:14.160Z,0.44
2023-01-23T09:32:14.028Z,0.47
2023-01-23T09:33:14.047Z,0.46
2023-01-23T09:34:16.859Z,0.49
2023-01-23T09:35:14.077Z,0.50
2023-01-23T09:36:13.996Z,0.52
2023-01-23T09:37:13.986Z,0.52
2023-01-23T09:38:13.966Z,0.52
2023-01-23T09:39:14.005Z,0.50
2023-01-23T09:40:13.931Z,0.50
2023-01-23T09:41:13.962Z,0.50
2023-01-23T09:42:13.904Z,0.50
2023-01-23T09:43:13.902Z,0.55
2023-01-23T09:44:13.904Z,0.50
2023-01-23T09:45:13.902Z,0.55
2023-01-23T09:46:13.930Z,0.55
2023-01-23T09:47:13.879Z,0.56
2023-01-23T09:48:13.851Z,0.59
2023-01-23T09:49:13.880Z,0.60
2023-01-23T09:50:13.811Z,0.63
2023-01-23T09:51:13.882Z,0.63
2023-01-23T09:52:13.777Z,0.63
2023-01-23T09:53:13.800Z,0.62
2023-01-23T09:54:13.751Z,0.65
2023-01-23T09:55:13.787Z,0.65
2023-01-23T09:56:13.749Z,0.66
2023-01-23T09:57:13.725Z,0.68
2023-01-23T09:58:13.788Z,0.65
2023-01-23T09:59:13.712Z,0.63
2023-01-23T10:00:13.701Z,0.62
2023-01-23T10:01:13.774Z,0.63
2023-01-23T10:02:13.665Z,0.63
2023-01-23T10:03:13.648Z,0.63
2023-01-23T10:04:13.647Z,0.63
2023-01-23T10:05:13.638Z,0.68
2023-01-23T10:06:13.621Z,0.69
2023-01-23T10:07:13.619Z,0.66
2023-01-23T10:08:13.578Z,0.66
2023-01-23T10:09:13.615Z,0.65
2023-01-23T10:10:13.590Z,0.68
2023-01-23T10:11:13.600Z,0.68
2023-01-23T10:12:13.541Z,0.68
2023-01-23T10:13:16.363Z,0.70
2023-01-23T10:14:15.417Z,0.69
2023-01-23T10:15:13.514Z,0.70
2023-01-23T10:16:13.492Z,0.73
2023-01-23T10:17:13.545Z,0.73
2023-01-23T10:18:13.493Z,0.74
2023-01-23T10:19:13.493Z,0.73
2023-01-23T10:20:13.524Z,0.74
2023-01-23T10:21:13.450Z,0.74
2023-01-23T10:22:22.609Z,0.74
2023-01-23T10:23:14.428Z,0.76
2023-01-23T10:24:13.423Z,0.76
2023-01-23T10:25:13.393Z,0.77
2023-01-23T10:26:13.386Z,0.77
2023-01-23T10:27:13.354Z,0.81
2023-01-23T10:28:13.334Z,0.83
2023-01-23T10:29:13.463Z,0.84
2023-01-23T10:30:13.328Z,0.87
2023-01-23T10:31:13.454Z,0.87
2023-01-23T10:32:13.272Z,0.88
2023-01-23T10:33:13.301Z,0.87
2023-01-23T10:34:13.270Z,0.87
2023-01-23T10:35:13.325Z,0.91
2023-01-23T10:36:17.466Z,0.87
2023-01-23T10:37:14.259Z,0.88
2023-01-23T10:38:13.227Z,0.87
2023-01-23T10:39:13.250Z,0.86
2023-01-23T10:40:13.186Z,0.88
2023-01-23T10:41:13.206Z,0.86
2023-01-23T10:42:13.203Z,0.87
2023-01-23T10:43:13.203Z,0.86
2023-01-23T10:44:13.138Z,0.86
2023-01-23T10:45:13.207Z,0.87
2023-01-23T10:46:13.264Z,0.88
2023-01-23T10:47:13.162Z,0.88
2023-01-23T10:48:16.330Z,0.91
2023-01-23T10:49:13.115Z,0.92
2023-01-23T10:50:13.093Z,0.88
2023-01-23T10:51:13.096Z,0.88
2023-01-23T10:52:13.097Z,0.88
2023-01-23T10:53:13.077Z,0.92
2023-01-23T10:54:22.621Z,0.92
2023-01-23T10:55:14.009Z,0.94
2023-01-23T10:57:24.126Z,0.96
2023-01-23T10:58:25.872Z,0.98
2023-01-23T10:59:24.061Z,1.01
2023-01-23T11:00:24.109Z,0.99
2023-01-23T11:01:24.073Z,1.02
2023-01-23T11:02:24.179Z,1.01
2023-01-23T11:03:24.008Z,1.01
2023-01-23T11:04:24.021Z,0.99
2023-01-23T11:05:24.026Z,1.01
2023-01-23T11:06:23.990Z,1.01
2023-01-23T11:07:23.966Z,1.02
2023-01-23T11:08:23.980Z,1.02
2023-01-23T11:09:23.945Z,1.04
2023-01-23T11:10:23.977Z,1.02
2023-01-23T11:11:23.966Z,1.05
2023-01-23T11:12:23.932Z,1.04
2023-01-23T11:13:23.892Z,1.05
2023-01-23T11:14:23.931Z,1.08
2023-01-23T11:15:24.209Z,1.05
2023-01-23T11:16:23.977Z,1.06
2023-01-23T11:17:23.896Z,1.12
2023-01-23T11:18:23.880Z,1.13
2023-01-23T11:19:23.843Z,1.08
2023-01-23T11:20:23.809Z,1.10
2023-01-23T11:21:23.852Z,1.12
2023-01-23T11:22:23.778Z,1.10
2023-01-23T11:23:23.824Z,1.10
2023-01-23T11:24:37.804Z,1.14
2023-01-23T11:25:24.768Z,1.13
2023-01-23T11:26:23.728Z,1.17
2023-01-23T11:27:24.422Z,1.20
2023-01-23T11:28:23.886Z,1.20
2023-01-23T11:29:23.719Z,1.19
2023-01-23T11:30:23.755Z,1.20
2023-01-23T11:31:23.748Z,1.22
2023-01-23T11:32:23.937Z,1.22
2023-01-23T11:33:23.692Z,1.20
2023-01-23T11:34:23.640Z,1.22
2023-01-23T11:35:24.041Z,1.22
2023-01-23T11:36:23.645Z,1.19
2023-01-23T11:37:23.618Z,1.17
2023-01-23T11:38:30.659Z,1.17
2023-01-23T11:39:24.578Z,1.16
2023-01-23T11:40:23.566Z,1.19
2023-01-23T11:41:23.616Z,1.17
2023-01-23T11:42:23.532Z,1.17
2023-01-23T11:43:23.528Z,1.16
2023-01-23T11:44:24.404Z,1.16
2023-01-23T11:45:23.529Z,1.19
2023-01-23T11:46:23.557Z,1.16
2023-01-23T11:47:23.498Z,1.19
2023-01-23T11:48:23.462Z,1.20
2023-01-23T11:49:23.451Z,1.22
2023-01-23T11:50:23.451Z,1.23
2023-01-23T11:51:23.530Z,1.23
2023-01-23T11:52:23.400Z,1.24
2023-01-23T11:53:33.521Z,1.24
2023-01-23T11:54:24.367Z,1.24
2023-01-23T11:55:23.621Z,1.30
2023-01-23T11:56:23.388Z,1.28
2023-01-23T11:57:23.379Z,1.28
2023-01-23T11:58:23.337Z,1.28
2023-01-23T11:59:23.350Z,1.28
2023-01-23T12:00:23.721Z,1.31
2023-01-23T12:01:23.363Z,1.30
2023-01-23T12:02:23.344Z,1.28
2023-01-23T12:03:23.337Z,1.30
2023-01-23T12:04:23.251Z,1.31
2023-01-23T12:05:23.676Z,1.28
2023-01-23T12:06:23.263Z,1.28
2023-01-23T12:07:23.240Z,1.24
2023-01-23T12:08:23.220Z,1.23
2023-01-23T12:09:23.220Z,1.23
2023-01-23T12:10:23.355Z,1.23
2023-01-23T12:11:23.209Z,1.22
2023-01-23T12:12:23.147Z,1.19
2023-01-23T12:13:23.258Z,1.19
2023-01-23T12:14:23.172Z,1.19
2023-01-23T12:15:23.139Z,1.19
2023-01-23T12:16:23.195Z,1.19
2023-01-23T12:17:23.134Z,1.19
2023-01-23T12:18:23.091Z,1.20
2023-01-23T12:19:23.093Z,1.17
2023-01-23T12:20:23.423Z,1.16
2023-01-23T12:21:23.076Z,1.16
2023-01-23T12:22:23.031Z,1.16
2023-01-23T12:23:23.071Z,1.19
2023-01-23T12:24:23.009Z,1.19
2023-01-23T12:25:23.339Z,1.20
2023-01-23T12:26:22.985Z,1.22
2023-01-23T12:27:22.997Z,1.23
2023-01-23T12:28:22.955Z,1.24
2023-01-23T12:29:22.978Z,1.24
2023-01-23T12:30:23.130Z,1.26
2023-01-23T12:31:23.018Z,1.26
2023-01-23T12:32:22.969Z,1.28
2023-01-23T12:33:22.911Z,1.24
2023-01-23T12:34:22.867Z,1.28
2023-01-23T12:35:22.877Z,1.24
2023-01-23T12:36:22.846Z,1.24
2023-01-23T12:37:30.489Z,1.23
2023-01-23T12:38:23.822Z,1.26
2023-01-23T12:39:22.822Z,1.28
2023-01-23T12:40:23.291Z,1.30
2023-01-23T12:41:22.819Z,1.30
2023-01-23T12:42:22.775Z,1.31
2023-01-23T12:43:22.799Z,1.31
2023-01-23T12:44:22.740Z,1.34
2023-01-23T12:45:23.377Z,1.32
2023-01-23T12:46:22.726Z,1.34
2023-01-23T12:47:22.728Z,1.34
2023-01-23T12:48:22.705Z,1.35
2023-01-23T12:49:22.746Z,1.37
2023-01-23T12:50:22.695Z,1.35
2023-01-23T12:51:22.710Z,1.37
2023-01-23T12:52:22.679Z,1.38
2023-01-23T12:53:22.644Z,1.38
2023-01-23T12:54:22.627Z,1.38
2023-01-23T12:55:22.729Z,1.38
2023-01-23T12:56:22.594Z,1.41
2023-01-23T12:57:30.684Z,1.41
2023-01-23T12:58:23.628Z,1.42
2023-01-23T12:59:22.582Z,1.41
2023-01-23T13:00:23.071Z,1.44
2023-01-23T13:01:22.680Z,1.45
2023-01-23T13:02:22.641Z,1.44
2023-01-23T13:03:22.944Z,1.48
2023-01-23T13:04:22.525Z,1.48
2023-01-23T13:05:22.504Z,1.48
2023-01-23T13:06:22.476Z,1.48
2023-01-23T13:07:22.498Z,1.48
2023-01-23T13:08:22.452Z,1.45
2023-01-23T13:09:22.484Z,1.45
2023-01-23T13:10:22.977Z,1.48
2023-01-23T13:11:22.423Z,1.52